createdAt,value
2022-09-24T00:03:09.110Z,7.82
2022-09-24T00:08:11.408Z,9.52
2022-09-24T00:13:18.286Z,8.25
2022-09-24T00:18:21.912Z,8.05
2022-09-24T00:23:23.650Z,7.43
2022-09-24T00:28:25.250Z,7.88
2022-09-24T00:33:31.404Z,7.10
2022-09-24T00:38:33.593Z,7.97
2022-09-24T00:43:37.817Z,7.78
2022-09-24T00:48:41.044Z,7.90
2022-09-24T00:53:46.086Z,8.10
2022-09-24T00:58:56.255Z,7.80
2022-09-24T01:04:00.610Z,7.18
2022-09-24T01:09:02.480Z,7.80
2022-09-24T01:14:19.851Z,7.70
2022-09-24T01:19:30.913Z,7.50
2022-09-24T01:25:07.837Z,7.75
2022-09-24T01:30:12.049Z,8.60
2022-09-24T01:35:26.460Z,8.55
2022-09-24T01:40:30.277Z,8.73
2022-09-24T01:45:33.190Z,7.70
2022-09-24T01:50:44.773Z,7.65
2022-09-24T01:55:50.305Z,8.50
2022-09-24T02:00:56.195Z,9.07
2022-09-24T02:06:08.720Z,8.65
2022-09-24T02:11:14.740Z,8.38
2022-09-24T02:16:21.722Z,7.97
2022-09-24T02:21:25.859Z,7.65
2022-09-24T02:26:27.595Z,8.07
2022-09-24T02:31:37.278Z,9.40
2022-09-24T02:36:39.821Z,8.13
2022-09-24T02:41:47.157Z,8.70
2022-09-24T02:46:50.365Z,9.50
2022-09-24T02:51:52.210Z,10.18
2022-09-24T02:56:54.305Z,10.13
2022-09-24T03:01:56.070Z,9.98
2022-09-24T03:06:57.755Z,10.38
2022-09-24T03:12:00.619Z,11.07
2022-09-24T03:17:02.264Z,11.85
2022-09-24T03:22:03.938Z,15.07
2022-09-24T03:27:05.553Z,15.18
2022-09-24T03:32:07.208Z,17.27
2022-09-24T03:37:08.734Z,16.73
2022-09-24T03:42:10.669Z,15.48
2022-09-24T03:47:12.506Z,15.32
2022-09-24T03:52:14.198Z,15.18
2022-09-24T03:57:15.794Z,19.52
2022-09-24T04:02:17.401Z,19.55
2022-09-24T04:07:19.155Z,17.13
2022-09-24T04:12:20.848Z,16.77
2022-09-24T04:17:22.455Z,17.33
2022-09-24T04:22:26.083Z,17.95
2022-09-24T04:27:28.090Z,19.17
2022-09-24T04:32:29.675Z,17.55
2022-09-24T04:37:31.385Z,17.35
2022-09-24T04:42:33.188Z,15.98
2022-09-24T04:47:35.724Z,16.10
2022-09-24T04:52:39.139Z,16.38
2022-09-24T04:57:41.341Z,17.25
2022-09-24T05:02:44.067Z,13.77
2022-09-24T05:07:45.946Z,15.43
2022-09-24T05:12:47.564Z,17.48
2022-09-24T05:17:49.414Z,15.00
2022-09-24T05:22:51.357Z,15.05
2022-09-24T05:27:54.958Z,16.50
2022-09-24T05:32:56.638Z,14.90
2022-09-24T05:37:58.213Z,16.10
2022-09-24T05:43:04.147Z,17.98
2022-09-24T05:48:05.891Z,17.20
2022-09-24T05:53:07.620Z,16.17
2022-09-24T05:58:10.807Z,18.40
2022-09-24T06:03:17.212Z,16.98
2022-09-24T06:08:20.344Z,17.73
2022-09-24T06:13:22.663Z,20.77
2022-09-24T06:18:24.570Z,20.60
2022-09-24T06:23:26.227Z,22.25
2022-09-24T06:28:27.892Z,22.05
2022-09-24T06:33:30.729Z,21.92
2022-09-24T06:38:32.880Z,21.30
2022-09-24T06:43:34.770Z,21.95
2022-09-24T06:48:38.137Z,23.13
2022-09-24T06:53:39.734Z,23.05
2022-09-24T06:58:41.447Z,19.60
2022-09-24T07:03:43.078Z,22.67
2022-09-24T07:08:44.842Z,23.08
2022-09-24T07:13:46.534Z,27.35
2022-09-24T07:18:48.174Z,26.70
2022-09-24T07:23:49.938Z,25.13
2022-09-24T07:28:51.598Z,23.88
2022-09-24T07:33:53.449Z,25.48
2022-09-24T07:38:55.012Z,25.95
2022-09-24T07:43:56.585Z,27.77
2022-09-24T07:48:58.239Z,24.35
2022-09-24T07:53:59.921Z,25.30
2022-09-24T07:59:01.850Z,20.90
2022-09-24T08:04:04.695Z,20.83
2022-09-24T08:09:06.947Z,20.92
2022-09-24T08:14:08.707Z,20.38
2022-09-24T08:19:14.095Z,20.15
2022-09-24T08:24:15.987Z,18.25
2022-09-24T08:29:18.218Z,17.48
2022-09-24T08:34:19.828Z,16.98
2022-09-24T08:39:21.441Z,19.13
2022-09-24T08:44:58.173Z,18.90
2022-09-24T08:50:09.867Z,18.48
2022-09-24T08:55:18.063Z,17.77
2022-09-24T09:00:19.863Z,18.73
2022-09-24T09:05:40.412Z,16.58
2022-09-24T09:10:43.457Z,17.17
2022-09-24T09:16:04.064Z,17.50
2022-09-24T09:21:27.114Z,15.80
2022-09-24T09:26:28.903Z,15.15
2022-09-24T09:31:46.176Z,13.93
2022-09-24T09:37:06.675Z,15.27
2022-09-24T09:42:23.864Z,15.00
2022-09-24T09:47:43.108Z,15.27
2022-09-24T09:52:44.825Z,14.18
2022-09-24T09:57:47.815Z,14.68
2022-09-24T10:02:53.686Z,16.42
2022-09-24T10:07:59.376Z,16.70
2022-09-24T10:13:12.996Z,18.02
2022-09-24T10:18:15.412Z,15.38
2022-09-24T10:23:32.568Z,16.88
2022-09-24T10:28:57.871Z,17.08
2022-09-24T10:34:01.674Z,16.77
2022-09-24T10:39:03.356Z,16.25
2022-09-24T10:44:11.934Z,17.30
2022-09-24T10:49:41.928Z,17.42
2022-09-24T10:55:00.159Z,17.30
2022-09-24T11:00:02.298Z,18.50
2022-09-24T11:05:21.620Z,19.42
2022-09-24T11:10:45.625Z,18.25
2022-09-24T11:16:12.496Z,17.52
2022-09-24T11:21:31.776Z,15.82
2022-09-24T11:27:04.939Z,17.70
2022-09-24T11:32:30.138Z,18.30
2022-09-24T11:37:39.426Z,18.42
2022-09-24T11:43:09.369Z,18.98
2022-09-24T11:48:30.094Z,18.75
2022-09-24T11:53:39.863Z,14.80
2022-09-24T11:58:51.775Z,15.25
2022-09-24T12:04:16.741Z,13.05
2022-09-24T12:09:26.487Z,12.98
2022-09-24T12:14:31.976Z,12.50
2022-09-24T12:19:42.032Z,12.20
2022-09-24T12:24:50.687Z,11.85
2022-09-24T12:30:33.596Z,12.52
2022-09-24T12:36:05.366Z,12.38
2022-09-24T12:41:25.996Z,14.57
2022-09-24T12:46:31.611Z,13.40
2022-09-24T12:51:39.372Z,13.23
2022-09-24T12:56:41.227Z,11.20
2022-09-24T13:01:43.164Z,11.43
2022-09-24T13:06:48.148Z,10.57
2022-09-24T13:12:05.228Z,15.13
2022-09-24T13:17:07.546Z,15.25
2022-09-24T13:22:29.242Z,8.75
2022-09-24T13:27:30.946Z,6.05
2022-09-24T13:32:38.808Z,5.65
2022-09-24T13:37:43.988Z,4.63
2022-09-24T13:43:07.395Z,5.82
2022-09-24T13:48:33.444Z,4.50
2022-09-24T13:53:39.057Z,3.80
2022-09-24T13:58:42.004Z,4.30
2022-09-24T14:03:55.445Z,3.33
2022-09-24T14:08:57.390Z,3.70
2022-09-24T14:14:11.547Z,3.47
2022-09-24T14:24:19.358Z,2.53
2022-09-24T14:29:45.381Z,3.42
2022-09-24T14:34:53.112Z,3.10
2022-09-24T14:40:02.976Z,3.08
2022-09-24T14:45:07.913Z,3.55
2022-09-24T14:50:27.909Z,4.07
2022-09-24T14:55:38.485Z,4.88
2022-09-24T15:00:50.234Z,6.13
2022-09-24T15:05:52.607Z,6.25
2022-09-24T15:11:04.768Z,7.05
2022-09-24T15:16:28.646Z,7.22
2022-09-24T15:26:34.871Z,7.40
2022-09-24T15:31:37.331Z,6.40
2022-09-24T15:36:40.287Z,6.28
2022-09-24T15:41:42.103Z,6.47
2022-09-24T15:46:43.837Z,6.80
2022-09-24T15:51:45.971Z,6.35
2022-09-24T15:56:52.660Z,6.47
2022-09-24T16:01:58.761Z,7.30
2022-09-24T16:07:00.589Z,7.20
2022-09-24T16:12:02.486Z,7.68
2022-09-24T16:17:04.131Z,7.95
2022-09-24T16:22:05.906Z,8.18
2022-09-24T16:27:08.110Z,8.40
2022-09-24T16:32:10.932Z,9.57
2022-09-24T16:37:14.548Z,12.95
2022-09-24T16:42:16.101Z,10.13
2022-09-24T16:47:18.918Z,11.10
2022-09-24T16:52:20.863Z,9.70
2022-09-24T16:57:22.848Z,8.70
2022-09-24T17:02:24.776Z,10.32
2022-09-24T17:07:26.864Z,11.00
2022-09-24T17:12:28.854Z,12.40
2022-09-24T17:17:31.044Z,13.30
2022-09-24T17:22:33.100Z,13.27
2022-09-24T17:27:35.189Z,17.38
2022-09-24T17:32:36.996Z,15.48
2022-09-24T17:37:38.728Z,15.10
2022-09-24T17:42:45.870Z,19.98
2022-09-24T17:47:56.319Z,22.88
2022-09-24T17:52:59.219Z,21.35
2022-09-24T17:58:01.066Z,24.30
2022-09-24T18:03:02.941Z,24.15
2022-09-24T18:08:06.166Z,23.52
2022-09-24T18:13:08.068Z,28.27
2022-09-24T18:18:09.818Z,27.48
2022-09-24T18:23:11.517Z,28.25
2022-09-24T18:28:18.472Z,33.38
2022-09-24T18:33:20.531Z,29.10
2022-09-24T18:38:22.247Z,33.80
2022-09-24T18:43:23.992Z,36.42
2022-09-24T18:48:25.569Z,36.45
2022-09-24T18:53:28.101Z,39.63
2022-09-24T18:58:29.874Z,39.58
2022-09-24T19:03:32.264Z,37.58
2022-09-24T19:08:35.535Z,36.38
2022-09-24T19:13:39.151Z,38.45
2022-09-24T19:18:41.465Z,42.43
2022-09-24T19:23:51.034Z,39.67
2022-09-24T19:28:53.675Z,36.70
2022-09-24T19:33:55.696Z,39.90
2022-09-24T19:38:58.050Z,38.20
2022-09-24T19:44:05.975Z,41.65
2022-09-24T19:49:10.427Z,42.72
2022-09-24T19:54:12.319Z,42.63
2022-09-24T19:59:14.653Z,48.97
2022-09-24T20:04:16.493Z,44.05
2022-09-24T20:09:18.355Z,43.63
2022-09-24T20:14:21.622Z,44.53
2022-09-24T20:19:23.425Z,44.38
2022-09-24T20:24:25.413Z,45.60
2022-09-24T20:29:27.242Z,46.25
2022-09-24T20:34:46.507Z,48.97
2022-09-24T20:39:48.973Z,45.80
2022-09-24T20:44:50.863Z,45.80
2022-09-24T20:49:52.638Z,44.30
2022-09-24T20:54:54.501Z,42.20
2022-09-24T20:59:56.483Z,41.33
2022-09-24T21:04:58.414Z,37.40
2022-09-24T21:10:00.598Z,34.88
2022-09-24T21:15:02.612Z,28.52
2022-09-24T21:20:04.937Z,28.20
2022-09-24T21:25:06.931Z,23.40
2022-09-24T21:30:09.086Z,20.48
2022-09-24T21:35:11.020Z,18.60
2022-09-24T21:40:13.196Z,16.98
2022-09-24T21:45:15.290Z,17.73
2022-09-24T21:50:17.092Z,16.52
2022-09-24T21:55:18.853Z,16.73
2022-09-24T22:00:22.241Z,16.10
2022-09-24T22:05:24.055Z,16.88
2022-09-24T22:10:25.722Z,14.27
2022-09-24T22:15:28.155Z,17.52
2022-09-24T22:20:29.860Z,14.95
2022-09-24T22:25:32.038Z,14.65
2022-09-24T22:30:33.986Z,14.73
2022-09-24T22:35:49.088Z,13.30
2022-09-24T22:40:52.235Z,12.07
2022-09-24T22:46:01.651Z,13.07
2022-09-24T22:51:05.091Z,12.02
2022-09-24T22:56:19.020Z,12.35
2022-09-24T23:01:25.019Z,11.73
2022-09-24T23:06:27.582Z,11.60
2022-09-24T23:11:32.936Z,10.80
2022-09-24T23:16:36.868Z,10.77
2022-09-24T23:21:39.231Z,11.60
2022-09-24T23:26:41.232Z,11.80
2022-09-24T23:31:43.237Z,12.43
2022-09-24T23:36:46.310Z,11.45
2022-09-24T23:41:48.130Z,12.73
2022-09-24T23:46:50.062Z,12.40
2022-09-24T23:51:52.310Z,12.48
2022-09-24T23:56:54.474Z,12.30
